createdAt,value
2017-10-05T00:00:18.087Z,3.33
2017-10-05T00:02:45.568Z,2.73
2017-10-05T00:05:13.034Z,2.90
2017-10-05T00:07:41.264Z,2.60
2017-10-05T00:10:08.728Z,1.90
2017-10-05T00:12:36.198Z,2.30
2017-10-05T00:15:04.441Z,2.50
2017-10-05T00:17:31.921Z,2.00
2017-10-05T00:19:59.393Z,2.37
2017-10-05T00:22:26.989Z,2.03
2017-10-05T00:24:54.449Z,2.37
2017-10-05T00:27:22.683Z,2.83
2017-10-05T00:29:50.221Z,2.73
2017-10-05T00:32:17.684Z,2.30
2017-10-05T00:34:45.927Z,2.60
2017-10-05T00:37:13.395Z,2.37
2017-10-05T00:39:40.900Z,2.10
2017-10-05T00:42:08.364Z,2.60
2017-10-05T00:44:35.846Z,2.57
2017-10-05T00:47:03.306Z,2.40
2017-10-05T00:49:31.707Z,2.60
2017-10-05T00:52:00.020Z,2.83
2017-10-05T00:54:27.519Z,3.00
2017-10-05T00:56:55.760Z,2.80
2017-10-05T00:59:23.335Z,2.43
2017-10-05T01:01:50.786Z,3.03
2017-10-05T01:04:18.238Z,2.03
2017-10-05T01:06:46.480Z,2.03
2017-10-05T01:09:13.938Z,2.50
2017-10-05T01:11:41.414Z,2.30
2017-10-05T01:14:08.894Z,2.23
2017-10-05T01:16:37.232Z,1.80
2017-10-05T01:19:04.901Z,1.80
2017-10-05T01:21:32.350Z,1.80
2017-10-05T01:24:00.599Z,2.33
2017-10-05T01:26:28.072Z,2.00
2017-10-05T01:28:56.351Z,2.23
2017-10-05T01:31:23.834Z,2.37
2017-10-05T01:33:51.294Z,2.10
2017-10-05T01:36:19.555Z,2.70
2017-10-05T01:38:47.931Z,3.17
2017-10-05T01:41:15.560Z,2.47
2017-10-05T01:43:43.025Z,2.80
2017-10-05T01:46:10.513Z,2.70
2017-10-05T01:48:38.001Z,2.23
2017-10-05T01:51:05.464Z,2.80
2017-10-05T01:53:32.958Z,2.53
2017-10-05T01:56:00.420Z,3.10
2017-10-05T01:58:27.985Z,2.40
2017-10-05T02:00:56.222Z,2.73
2017-10-05T02:03:23.714Z,2.43
2017-10-05T02:05:51.218Z,2.23
2017-10-05T02:08:19.489Z,3.30
2017-10-05T02:10:46.973Z,2.70
2017-10-05T02:13:14.415Z,2.50
2017-10-05T02:15:41.895Z,2.70
2017-10-05T02:18:10.123Z,2.60
2017-10-05T02:20:37.713Z,3.13
2017-10-05T02:23:05.177Z,2.20
2017-10-05T02:25:32.636Z,3.00
2017-10-05T02:28:00.872Z,2.60
2017-10-05T02:30:28.324Z,2.90
2017-10-05T02:32:55.807Z,2.47
2017-10-05T02:35:24.018Z,2.60
2017-10-05T02:37:52.294Z,3.17
2017-10-05T02:40:20.525Z,2.90
2017-10-05T02:42:47.979Z,2.03
2017-10-05T02:45:16.239Z,2.20
2017-10-05T02:47:43.712Z,2.20
2017-10-05T02:50:11.180Z,2.10
2017-10-05T02:52:38.637Z,2.60
2017-10-05T02:55:06.902Z,2.23
2017-10-05T02:57:34.447Z,2.77
2017-10-05T03:00:01.905Z,2.33
2017-10-05T03:02:29.603Z,2.30
2017-10-05T03:04:57.060Z,2.60
2017-10-05T03:07:24.515Z,2.33
2017-10-05T03:09:52.014Z,2.63
2017-10-05T03:12:19.520Z,2.30
2017-10-05T03:14:47.757Z,2.60
2017-10-05T03:17:15.215Z,3.13
2017-10-05T03:19:42.854Z,2.40
2017-10-05T03:22:10.317Z,2.53
2017-10-05T03:24:37.772Z,2.63
2017-10-05T03:27:05.239Z,2.57
2017-10-05T03:29:32.698Z,2.20
2017-10-05T03:32:00.305Z,2.80
2017-10-05T03:34:28.538Z,2.30
2017-10-05T03:36:56.012Z,2.70
2017-10-05T03:39:23.484Z,3.07
2017-10-05T03:41:50.938Z,2.63
2017-10-05T03:44:19.219Z,2.00
2017-10-05T03:46:47.574Z,2.07
2017-10-05T03:49:15.038Z,2.20
2017-10-05T03:51:43.299Z,2.50
2017-10-05T03:54:10.768Z,2.10
2017-10-05T03:56:38.378Z,2.73
2017-10-05T03:59:05.839Z,2.00
2017-10-05T04:01:33.309Z,2.43
2017-10-05T04:04:00.786Z,1.87
2017-10-05T04:06:28.256Z,1.90
2017-10-05T04:08:55.746Z,2.20
2017-10-05T04:11:23.209Z,2.10
2017-10-05T04:13:50.793Z,1.90
2017-10-05T04:16:18.270Z,1.70
2017-10-05T04:18:45.738Z,2.10
2017-10-05T04:21:13.986Z,2.37
2017-10-05T04:23:42.205Z,1.90
2017-10-05T04:26:11.189Z,2.10
2017-10-05T04:28:38.690Z,1.60
2017-10-05T04:31:06.263Z,1.40
2017-10-05T04:33:34.527Z,1.60
2017-10-05T04:36:02.752Z,1.80
2017-10-05T04:38:31.224Z,1.60
2017-10-05T04:40:59.449Z,1.47
2017-10-05T04:43:27.703Z,1.27
2017-10-05T04:45:55.171Z,1.80
2017-10-05T04:48:22.623Z,1.40
2017-10-05T04:50:50.102Z,1.60
2017-10-05T04:53:17.615Z,1.63
2017-10-05T04:55:45.118Z,1.70
2017-10-05T04:58:12.607Z,1.57
2017-10-05T05:00:40.121Z,1.77
2017-10-05T05:03:08.363Z,1.00
2017-10-05T05:05:35.815Z,1.10
2017-10-05T05:08:03.317Z,1.87
2017-10-05T05:10:30.798Z,1.17
2017-10-05T05:12:58.303Z,1.23
2017-10-05T05:15:25.778Z,1.13
2017-10-05T05:17:53.271Z,1.10
2017-10-05T05:20:20.772Z,1.40
2017-10-05T05:22:48.256Z,1.47
2017-10-05T05:25:15.814Z,0.93
2017-10-05T05:27:43.297Z,1.33
2017-10-05T05:30:10.806Z,1.87
2017-10-05T05:32:39.027Z,1.40
2017-10-05T05:35:06.518Z,1.43
2017-10-05T05:37:34.810Z,1.30
2017-10-05T05:40:02.273Z,1.10
2017-10-05T05:42:29.741Z,1.87
2017-10-05T05:44:57.194Z,1.13
2017-10-05T05:47:24.684Z,1.57
2017-10-05T05:49:52.139Z,1.10
2017-10-05T05:52:19.755Z,1.60
2017-10-05T05:54:47.388Z,1.53
2017-10-05T05:57:15.615Z,1.87
2017-10-05T05:59:44.015Z,1.87
2017-10-05T06:02:11.658Z,1.00
2017-10-05T06:04:39.253Z,1.67
2017-10-05T06:07:06.730Z,1.73
2017-10-05T06:09:34.220Z,1.30
2017-10-05T06:12:01.818Z,1.93
2017-10-05T06:14:30.103Z,1.37
2017-10-05T06:16:57.701Z,1.50
2017-10-05T06:19:25.985Z,1.30
2017-10-05T06:21:53.521Z,1.23
2017-10-05T06:24:21.524Z,1.27
2017-10-05T06:26:48.991Z,1.60
2017-10-05T06:29:16.543Z,1.40
2017-10-05T06:31:44.013Z,1.43
2017-10-05T06:34:11.490Z,1.90
2017-10-05T06:36:38.982Z,1.13
2017-10-05T06:39:06.438Z,1.50
2017-10-05T06:41:33.939Z,1.00
2017-10-05T06:44:01.489Z,1.50
2017-10-05T06:46:28.985Z,1.40
2017-10-05T06:48:56.455Z,1.50
2017-10-05T06:51:24.072Z,1.50
2017-10-05T06:53:51.590Z,1.20
2017-10-05T06:56:19.915Z,0.97
2017-10-05T06:58:47.388Z,1.70
2017-10-05T07:01:14.846Z,1.70
2017-10-05T07:03:43.101Z,1.30
2017-10-05T07:06:10.627Z,1.30
2017-10-05T07:08:39.004Z,1.47
2017-10-05T07:11:06.518Z,1.27
2017-10-05T07:13:34.780Z,0.97
2017-10-05T07:16:02.281Z,1.40
2017-10-05T07:18:29.754Z,1.13
2017-10-05T07:20:57.238Z,1.37
2017-10-05T07:23:24.707Z,1.40
2017-10-05T07:25:52.176Z,1.20
2017-10-05T07:28:19.693Z,1.10
2017-10-05T07:30:47.161Z,1.30
2017-10-05T07:33:14.651Z,1.17
2017-10-05T07:35:42.121Z,1.20
2017-10-05T07:38:10.605Z,1.40
2017-10-05T07:40:38.206Z,1.10
2017-10-05T07:43:05.761Z,1.10
2017-10-05T07:45:33.255Z,1.40
2017-10-05T07:48:00.857Z,1.97
2017-10-05T07:50:28.369Z,1.23
2017-10-05T07:52:55.847Z,1.33
2017-10-05T07:55:23.456Z,1.53
2017-10-05T07:57:51.692Z,1.57
2017-10-05T08:00:19.232Z,1.17
2017-10-05T08:02:47.566Z,1.33
2017-10-05T08:05:15.045Z,1.40
2017-10-05T08:07:42.544Z,1.13
2017-10-05T08:10:10.004Z,1.00
2017-10-05T08:12:37.488Z,1.13
2017-10-05T08:15:05.005Z,1.53
2017-10-05T08:17:32.490Z,0.87
2017-10-05T08:20:00.075Z,0.90
2017-10-05T08:22:27.527Z,1.13
2017-10-05T08:24:54.977Z,1.50
2017-10-05T08:27:22.441Z,1.17
2017-10-05T08:29:49.909Z,1.10
2017-10-05T08:32:17.423Z,1.10
2017-10-05T08:34:45.664Z,1.00
2017-10-05T08:37:13.162Z,1.53
2017-10-05T08:39:40.869Z,1.33
2017-10-05T08:42:11.259Z,1.20
2017-10-05T08:44:39.499Z,2.00
2017-10-05T08:47:06.978Z,0.90
2017-10-05T08:49:34.474Z,1.10
2017-10-05T08:52:01.957Z,0.73
2017-10-05T08:54:29.427Z,0.70
2017-10-05T08:56:56.901Z,0.80
2017-10-05T08:59:25.273Z,0.70
2017-10-05T09:01:52.739Z,0.90
2017-10-05T09:04:20.202Z,0.97
2017-10-05T09:06:48.443Z,0.80
2017-10-05T09:09:15.903Z,0.93
2017-10-05T09:11:43.438Z,0.70
2017-10-05T09:14:10.888Z,0.60
2017-10-05T09:16:38.370Z,0.80
2017-10-05T09:19:05.858Z,1.00
2017-10-05T09:21:34.092Z,0.80
2017-10-05T09:24:01.686Z,0.57
2017-10-05T09:26:29.162Z,0.80
2017-10-05T09:28:57.409Z,2.23
2017-10-05T09:31:24.890Z,0.80
2017-10-05T09:33:53.118Z,0.70
2017-10-05T09:36:20.616Z,0.90
2017-10-05T09:38:48.881Z,0.80
2017-10-05T09:41:17.117Z,0.93
2017-10-05T09:43:44.578Z,0.93
2017-10-05T09:46:12.035Z,0.70
2017-10-05T09:48:39.520Z,0.70
2017-10-05T09:51:06.984Z,0.90
2017-10-05T09:53:35.237Z,0.70
2017-10-05T09:56:02.758Z,0.70
2017-10-05T09:58:30.243Z,0.80
2017-10-05T10:00:57.698Z,0.97
2017-10-05T10:03:25.947Z,0.60
2017-10-05T10:05:53.417Z,0.70
2017-10-05T10:08:21.647Z,1.13
2017-10-05T10:10:49.897Z,0.60
2017-10-05T10:13:17.376Z,0.80
2017-10-05T10:15:45.609Z,0.60
2017-10-05T10:18:13.073Z,1.03
2017-10-05T10:20:40.699Z,1.00
2017-10-05T10:23:08.944Z,0.50
2017-10-05T10:25:36.431Z,0.70
2017-10-05T10:28:03.923Z,0.70
2017-10-05T10:30:31.384Z,0.80
2017-10-05T10:32:58.839Z,0.77
2017-10-05T10:35:26.356Z,0.67
2017-10-05T10:37:56.328Z,0.57
2017-10-05T10:40:24.569Z,0.50
2017-10-05T10:42:52.052Z,1.17
2017-10-05T10:45:20.295Z,0.77
2017-10-05T10:47:47.786Z,0.60
2017-10-05T10:50:16.015Z,1.07
2017-10-05T10:52:43.497Z,0.47
2017-10-05T10:55:10.980Z,0.63
2017-10-05T10:57:39.216Z,0.50
2017-10-05T11:00:06.707Z,0.77
2017-10-05T11:02:34.958Z,0.60
2017-10-05T11:05:02.425Z,0.70
2017-10-05T11:07:29.918Z,0.53
2017-10-05T11:09:57.395Z,0.73
2017-10-05T11:12:24.872Z,0.70
2017-10-05T11:14:52.332Z,0.60
2017-10-05T11:17:19.906Z,0.70
2017-10-05T11:19:47.377Z,0.50
2017-10-05T11:22:15.604Z,0.77
2017-10-05T11:24:43.088Z,0.57
2017-10-05T11:27:10.545Z,0.70
2017-10-05T11:29:38.014Z,0.50
2017-10-05T11:32:06.250Z,0.60
2017-10-05T11:34:33.710Z,0.73
2017-10-05T11:37:01.979Z,0.93
2017-10-05T11:39:29.425Z,0.60
2017-10-05T11:41:56.892Z,0.70
2017-10-05T11:44:24.357Z,0.80
2017-10-05T11:46:51.859Z,0.90
2017-10-05T11:49:19.339Z,0.70
2017-10-05T11:51:46.815Z,0.70
2017-10-05T11:54:15.043Z,0.53
2017-10-05T11:56:43.300Z,0.60
2017-10-05T11:59:11.530Z,0.63
2017-10-05T12:01:39.121Z,1.07
2017-10-05T12:04:06.582Z,0.70
2017-10-05T12:06:34.082Z,0.87
2017-10-05T12:09:01.567Z,0.50
2017-10-05T12:11:29.034Z,0.80
2017-10-05T12:13:57.537Z,0.77
2017-10-05T12:16:25.894Z,0.50
2017-10-05T12:18:53.384Z,0.60
2017-10-05T12:21:21.746Z,0.80
2017-10-05T12:23:49.213Z,0.63
2017-10-05T12:26:17.450Z,0.60
2017-10-05T12:28:44.926Z,0.63
2017-10-05T12:31:12.498Z,0.70
2017-10-05T12:33:40.909Z,0.83
2017-10-05T12:36:08.370Z,0.70
2017-10-05T12:38:35.852Z,0.67
2017-10-05T12:41:03.305Z,0.80
2017-10-05T12:43:30.784Z,0.50
2017-10-05T12:45:58.241Z,0.57
2017-10-05T12:48:25.730Z,0.80
2017-10-05T12:50:53.191Z,0.80
2017-10-05T12:53:20.759Z,0.90
2017-10-05T12:55:48.226Z,0.83
2017-10-05T12:58:15.715Z,0.50
2017-10-05T13:00:43.196Z,1.50
2017-10-05T13:03:11.475Z,0.90
2017-10-05T13:05:39.705Z,0.57
2017-10-05T13:08:07.182Z,0.70
2017-10-05T13:10:34.669Z,0.50
2017-10-05T13:13:02.876Z,0.70
2017-10-05T13:15:30.359Z,0.60
2017-10-05T13:17:57.830Z,0.50
2017-10-05T13:20:25.291Z,0.80
2017-10-05T13:22:52.771Z,0.67
2017-10-05T13:25:20.553Z,1.00
2017-10-05T13:27:48.023Z,0.60
2017-10-05T13:30:15.501Z,0.60
2017-10-05T13:32:42.963Z,0.60
2017-10-05T13:35:10.531Z,0.80
2017-10-05T13:37:37.989Z,0.80
2017-10-05T13:40:05.482Z,0.60
2017-10-05T13:42:32.929Z,0.57
2017-10-05T13:45:00.465Z,0.70
2017-10-05T13:47:28.690Z,0.73
2017-10-05T13:49:56.204Z,0.73
2017-10-05T13:52:24.450Z,0.80
2017-10-05T13:54:53.410Z,0.70
2017-10-05T13:57:20.939Z,0.70
2017-10-05T13:59:48.389Z,0.60
2017-10-05T14:02:16.637Z,0.40
2017-10-05T14:04:44.123Z,0.67
2017-10-05T14:07:11.595Z,0.60
2017-10-05T14:09:39.080Z,0.70
2017-10-05T14:12:06.546Z,0.73
2017-10-05T14:14:34.033Z,0.70
2017-10-05T14:17:02.296Z,0.80
2017-10-05T14:19:29.749Z,0.60
2017-10-05T14:21:57.232Z,0.67
2017-10-05T14:24:25.475Z,0.80
2017-10-05T14:26:52.949Z,0.90
2017-10-05T14:29:21.318Z,0.40
2017-10-05T14:31:49.553Z,0.70
2017-10-05T14:34:17.124Z,0.63
2017-10-05T14:36:44.590Z,0.70
2017-10-05T14:39:12.062Z,0.57
2017-10-05T14:41:39.535Z,0.50
2017-10-05T14:44:07.754Z,0.90
2017-10-05T14:46:35.210Z,0.60
2017-10-05T14:49:02.686Z,0.80
2017-10-05T14:51:30.150Z,0.90
2017-10-05T14:53:57.631Z,0.67
2017-10-05T14:56:25.920Z,0.63
2017-10-05T14:58:53.529Z,0.60
2017-10-05T15:01:21.022Z,0.73
2017-10-05T15:03:49.269Z,0.90
2017-10-05T15:06:16.738Z,0.93
2017-10-05T15:08:44.177Z,0.60
2017-10-05T15:11:11.692Z,0.70
2017-10-05T15:13:39.220Z,0.70
2017-10-05T15:16:07.458Z,0.60
2017-10-05T15:18:35.694Z,0.90
2017-10-05T15:21:03.189Z,0.87
2017-10-05T15:23:31.417Z,0.60
2017-10-05T15:25:58.916Z,1.13
2017-10-05T15:28:26.403Z,0.90
2017-10-05T15:30:53.867Z,0.80
2017-10-05T15:33:22.216Z,0.53
2017-10-05T15:35:49.813Z,0.90
2017-10-05T15:38:18.125Z,0.83
2017-10-05T15:40:45.621Z,1.13
2017-10-05T15:43:13.078Z,0.70
2017-10-05T15:45:40.669Z,0.97
2017-10-05T15:48:08.149Z,0.80
2017-10-05T15:50:35.722Z,1.07
2017-10-05T15:53:03.259Z,0.80
2017-10-05T15:55:30.712Z,1.33
2017-10-05T15:57:59.119Z,0.90
2017-10-05T16:00:26.572Z,1.63
2017-10-05T16:02:54.129Z,1.37
2017-10-05T16:05:21.612Z,1.10
2017-10-05T16:07:49.117Z,1.00
2017-10-05T16:10:16.602Z,1.03
2017-10-05T16:12:44.064Z,0.73
2017-10-05T16:15:11.562Z,1.03
2017-10-05T16:17:39.794Z,0.70
2017-10-05T16:20:07.279Z,1.17
2017-10-05T16:22:35.598Z,0.83
2017-10-05T16:25:03.086Z,1.50
2017-10-05T16:27:30.671Z,0.97
2017-10-05T16:29:58.904Z,0.90
2017-10-05T16:32:26.388Z,0.70
2017-10-05T16:34:53.894Z,0.60
2017-10-05T16:37:21.646Z,0.83
2017-10-05T16:39:49.094Z,0.80
2017-10-05T16:42:17.314Z,0.97
2017-10-05T16:44:44.792Z,0.67
2017-10-05T16:47:12.299Z,0.57
2017-10-05T16:49:39.914Z,0.77
2017-10-05T16:52:07.370Z,0.80
2017-10-05T16:54:34.869Z,1.00
2017-10-05T16:57:02.466Z,1.20
2017-10-05T16:59:29.932Z,0.80
2017-10-05T17:01:57.446Z,1.30
2017-10-05T17:04:24.904Z,0.50
2017-10-05T17:06:52.354Z,0.90
2017-10-05T17:09:19.939Z,0.90
2017-10-05T17:11:47.446Z,0.70
2017-10-05T17:14:15.655Z,0.60
2017-10-05T17:16:43.183Z,1.00
2017-10-05T17:19:11.463Z,0.73
2017-10-05T17:21:39.096Z,1.00
2017-10-05T17:24:06.547Z,0.70
2017-10-05T17:26:34.036Z,0.60
2017-10-05T17:29:01.712Z,1.10
2017-10-05T17:31:29.159Z,0.63
2017-10-05T17:33:56.627Z,0.70
2017-10-05T17:36:24.130Z,0.80
2017-10-05T17:38:51.620Z,0.93
2017-10-05T17:41:19.100Z,0.70
2017-10-05T17:43:46.605Z,1.00
2017-10-05T17:46:14.069Z,0.67
2017-10-05T17:48:42.426Z,0.83
2017-10-05T17:51:09.915Z,0.70
2017-10-05T17:53:38.162Z,1.10
2017-10-05T17:56:05.624Z,0.77
2017-10-05T17:58:33.862Z,0.80
2017-10-05T18:01:01.428Z,0.90
2017-10-05T18:03:28.903Z,0.80
2017-10-05T18:05:56.363Z,1.30
2017-10-05T18:08:23.839Z,0.97
2017-10-05T18:10:52.050Z,0.87
2017-10-05T18:13:19.532Z,0.63
2017-10-05T18:15:46.997Z,1.00
2017-10-05T18:18:14.649Z,0.70
2017-10-05T18:20:42.900Z,0.70
2017-10-05T18:23:10.354Z,0.60
2017-10-05T18:25:37.845Z,1.00
2017-10-05T18:28:05.337Z,0.60
2017-10-05T18:30:33.583Z,1.10
2017-10-05T18:33:01.054Z,0.90
2017-10-05T18:35:29.322Z,2.07
2017-10-05T18:37:56.778Z,1.83
2017-10-05T18:40:24.367Z,2.47
2017-10-05T18:42:51.852Z,2.57
2017-10-05T18:45:19.303Z,2.60
2017-10-05T18:47:46.776Z,3.70
2017-10-05T18:50:14.252Z,3.00
2017-10-05T18:52:41.760Z,2.47
2017-10-05T18:55:09.307Z,2.43
2017-10-05T18:57:36.882Z,2.43
2017-10-05T19:00:05.101Z,1.77
2017-10-05T19:02:32.559Z,1.80
2017-10-05T19:05:00.049Z,2.23
2017-10-05T19:07:27.506Z,1.23
2017-10-05T19:09:55.026Z,1.10
2017-10-05T19:12:22.523Z,1.47
2017-10-05T19:14:50.008Z,1.03
2017-10-05T19:17:17.505Z,1.10
2017-10-05T19:19:44.977Z,0.77
2017-10-05T19:22:13.234Z,1.10
2017-10-05T19:24:40.708Z,0.77
2017-10-05T19:27:08.237Z,0.70
2017-10-05T19:29:35.811Z,1.00
2017-10-05T19:32:04.139Z,0.77
2017-10-05T19:34:31.719Z,0.80
2017-10-05T19:36:59.216Z,0.80
2017-10-05T19:39:27.964Z,0.50
2017-10-05T19:41:55.432Z,0.77
2017-10-05T19:44:22.907Z,0.80
2017-10-05T19:46:51.163Z,0.63
2017-10-05T19:49:18.650Z,0.70
2017-10-05T19:51:46.235Z,1.03
2017-10-05T19:54:13.752Z,0.90
2017-10-05T19:56:42.005Z,0.90
2017-10-05T19:59:09.507Z,0.60
2017-10-05T20:01:37.006Z,0.77
2017-10-05T20:04:04.508Z,0.60
2017-10-05T20:06:32.771Z,0.93
2017-10-05T20:09:00.548Z,0.60
2017-10-05T20:11:28.034Z,0.77
2017-10-05T20:13:58.420Z,0.80
2017-10-05T20:16:30.122Z,1.00
2017-10-05T20:21:57.295Z,1.27
2017-10-05T20:24:41.426Z,0.90
2017-10-05T20:27:14.647Z,0.80
2017-10-05T20:29:52.051Z,1.40
2017-10-05T20:32:23.000Z,0.50
2017-10-05T20:34:50.480Z,0.83
2017-10-05T20:37:17.986Z,0.87
2017-10-05T20:39:45.469Z,0.80
2017-10-05T20:42:12.953Z,0.50
2017-10-05T20:44:40.454Z,0.70
2017-10-05T20:47:07.933Z,0.50
2017-10-05T20:49:35.599Z,0.63
2017-10-05T20:52:03.088Z,0.77
2017-10-05T20:54:30.747Z,0.53
2017-10-05T20:56:58.235Z,0.37
2017-10-05T20:59:25.715Z,0.43
2017-10-05T21:01:53.963Z,0.57
2017-10-05T21:04:21.562Z,0.63
2017-10-05T21:06:49.162Z,0.83
2017-10-05T21:09:17.409Z,0.50
2017-10-05T21:11:44.890Z,0.70
2017-10-05T21:14:12.419Z,0.60
2017-10-05T21:16:39.893Z,0.87
2017-10-05T21:19:07.552Z,0.53
2017-10-05T21:21:35.123Z,0.50
2017-10-05T21:24:02.604Z,1.73
2017-10-05T21:26:30.087Z,0.50
2017-10-05T21:28:57.559Z,0.43
2017-10-05T21:31:25.047Z,0.50
2017-10-05T21:33:52.533Z,0.60
2017-10-05T21:36:20.050Z,0.60
2017-10-05T21:38:47.518Z,0.73
2017-10-05T21:41:14.997Z,0.60
2017-10-05T21:43:42.572Z,0.50
2017-10-05T21:46:10.027Z,0.67
2017-10-05T21:48:37.509Z,0.60
2017-10-05T21:51:04.971Z,0.60
2017-10-05T21:53:33.392Z,0.57
2017-10-05T21:56:00.871Z,0.60
2017-10-05T21:58:29.096Z,0.50
2017-10-05T22:00:57.378Z,0.83
2017-10-05T22:03:24.887Z,0.63
2017-10-05T22:05:52.399Z,0.50
2017-10-05T22:08:19.877Z,0.50
2017-10-05T22:10:47.457Z,0.50
2017-10-05T22:13:15.119Z,0.50
2017-10-05T22:15:42.639Z,0.53
2017-10-05T22:18:10.128Z,0.40
2017-10-05T22:20:37.597Z,0.40
2017-10-05T22:23:05.087Z,0.50
2017-10-05T22:25:33.330Z,0.57
2017-10-05T22:28:00.816Z,0.67
2017-10-05T22:30:28.313Z,0.60
2017-10-05T22:32:56.584Z,0.50
2017-10-05T22:35:24.834Z,0.80
2017-10-05T22:37:52.304Z,0.87
2017-10-05T22:40:19.821Z,0.50
2017-10-05T22:42:47.289Z,0.43
2017-10-05T22:45:14.901Z,0.60
2017-10-05T22:47:42.359Z,0.60
2017-10-05T22:50:09.836Z,0.50
2017-10-05T22:52:37.357Z,0.60
2017-10-05T22:55:05.600Z,0.50
2017-10-05T22:57:33.131Z,0.80
2017-10-05T23:00:00.613Z,0.43
2017-10-05T23:02:29.001Z,0.50
2017-10-05T23:04:56.472Z,0.40
2017-10-05T23:07:23.937Z,0.60
2017-10-05T23:09:51.406Z,0.90
2017-10-05T23:12:19.644Z,0.53
2017-10-05T23:14:47.120Z,0.50
2017-10-05T23:17:14.602Z,0.80
2017-10-05T23:19:42.325Z,0.60
2017-10-05T23:22:10.578Z,0.43
2017-10-05T23:24:38.056Z,0.40
2017-10-05T23:27:05.609Z,0.70
2017-10-05T23:29:33.079Z,0.50
2017-10-05T23:32:01.326Z,0.80
2017-10-05T23:34:28.808Z,0.30
2017-10-05T23:36:56.305Z,0.37
2017-10-05T23:39:24.534Z,0.80
2017-10-05T23:41:52.018Z,0.50
2017-10-05T23:44:19.479Z,0.40
2017-10-05T23:46:47.734Z,0.43
2017-10-05T23:49:15.963Z,0.30
2017-10-05T23:51:43.428Z,0.40
2017-10-05T23:54:10.958Z,0.40
2017-10-05T23:56:38.415Z,0.50
2017-10-05T23:59:05.906Z,0.50
